createdAt,value
2017-11-11T00:00:40.742Z,65.30
2017-11-11T00:03:08.647Z,65.30
2017-11-11T00:05:36.204Z,65.30
2017-11-11T00:08:03.730Z,65.30
2017-11-11T00:10:31.274Z,65.20
2017-11-11T00:12:59.722Z,65.10
2017-11-11T00:15:27.350Z,65.10
2017-11-11T00:17:54.870Z,65.00
2017-11-11T00:20:22.675Z,64.90
2017-11-11T00:22:50.180Z,64.60
2017-11-11T00:25:17.698Z,64.60
2017-11-11T00:27:46.132Z,64.30
2017-11-11T00:30:13.726Z,64.20
2017-11-11T00:32:41.264Z,64.00
2017-11-11T00:35:08.856Z,64.00
2017-11-11T00:37:36.749Z,63.70
2017-11-11T00:40:04.266Z,63.70
2017-11-11T00:42:32.582Z,64.00
2017-11-11T00:45:00.158Z,64.10
2017-11-11T00:47:27.680Z,64.20
2017-11-11T00:49:55.236Z,64.30
2017-11-11T00:52:22.752Z,64.40
2017-11-11T00:54:50.279Z,64.40
2017-11-11T00:57:17.785Z,64.40
2017-11-11T00:59:45.587Z,64.40
2017-11-11T01:02:13.107Z,64.70
2017-11-11T01:04:40.741Z,64.70
2017-11-11T01:07:08.291Z,64.60
2017-11-11T01:09:35.846Z,64.50
2017-11-11T01:12:03.392Z,64.30
2017-11-11T01:14:30.955Z,64.40
2017-11-11T01:16:58.870Z,64.30
2017-11-11T01:19:26.396Z,64.50
2017-11-11T01:21:53.898Z,64.40
2017-11-11T01:24:21.452Z,64.40
2017-11-11T01:26:49.059Z,64.30
2017-11-11T01:29:16.617Z,64.40
2017-11-11T01:31:44.126Z,64.60
2017-11-11T01:34:12.059Z,64.70
2017-11-11T01:36:39.587Z,64.70
2017-11-11T01:39:07.889Z,64.80
2017-11-11T01:41:35.435Z,64.80
2017-11-11T01:44:02.952Z,64.90
2017-11-11T01:46:30.805Z,65.00
2017-11-11T01:48:58.330Z,65.20
2017-11-11T01:51:25.868Z,65.20
2017-11-11T01:53:54.173Z,65.40
2017-11-11T01:56:21.756Z,65.40
2017-11-11T01:58:49.317Z,65.60
2017-11-11T02:01:16.838Z,65.60
2017-11-11T02:03:44.688Z,65.60
2017-11-11T02:06:12.212Z,65.60
2017-11-11T02:08:39.726Z,65.70
2017-11-11T02:11:07.269Z,65.70
2017-11-11T02:13:34.799Z,65.70
2017-11-11T02:16:02.317Z,65.70
2017-11-11T02:18:29.831Z,65.80
2017-11-11T02:20:57.376Z,65.80
2017-11-11T02:23:24.888Z,65.90
2017-11-11T02:25:52.705Z,65.70
2017-11-11T02:28:20.256Z,65.70
2017-11-11T02:30:47.797Z,65.60
2017-11-11T02:33:15.340Z,65.60
2017-11-11T02:35:42.852Z,65.50
2017-11-11T02:38:10.411Z,65.60
2017-11-11T02:40:37.940Z,65.70
2017-11-11T02:43:05.743Z,65.60
2017-11-11T02:45:33.262Z,65.60
2017-11-11T02:48:00.785Z,65.60
2017-11-11T02:50:29.089Z,65.50
2017-11-11T02:52:56.590Z,65.60
2017-11-11T02:55:24.143Z,65.60
2017-11-11T02:57:51.677Z,65.50
2017-11-11T03:00:19.563Z,65.40
2017-11-11T03:02:47.073Z,65.60
2017-11-11T03:05:15.367Z,65.50
2017-11-11T03:07:42.903Z,65.40
2017-11-11T03:10:11.195Z,65.30
2017-11-11T03:12:38.728Z,65.30
2017-11-11T03:15:06.262Z,65.50
2017-11-11T03:17:34.098Z,65.40
2017-11-11T03:20:01.620Z,65.30
2017-11-11T03:22:29.142Z,65.20
2017-11-11T03:24:57.447Z,65.80
2017-11-11T03:27:24.952Z,65.10
2017-11-11T03:29:52.506Z,65.10
2017-11-11T03:32:20.027Z,65.00
2017-11-11T03:34:47.859Z,65.00
2017-11-11T03:37:15.382Z,65.00
2017-11-11T03:39:42.913Z,65.10
2017-11-11T03:42:10.475Z,65.80
2017-11-11T03:44:37.978Z,64.90
2017-11-11T03:47:05.526Z,64.80
2017-11-11T03:49:33.058Z,64.80
2017-11-11T03:52:01.571Z,64.80
2017-11-11T03:54:29.119Z,64.80
2017-11-11T03:56:57.399Z,64.70
2017-11-11T03:59:25.716Z,64.70
2017-11-11T04:01:53.231Z,64.80
2017-11-11T04:04:20.800Z,64.80
2017-11-11T04:06:49.745Z,64.60
2017-11-11T04:09:17.590Z,65.40
2017-11-11T04:11:45.118Z,64.50
2017-11-11T04:14:12.639Z,64.30
2017-11-11T04:16:40.185Z,64.20
2017-11-11T04:19:07.705Z,64.20
2017-11-11T04:21:35.555Z,64.20
2017-11-11T04:24:03.060Z,64.00
2017-11-11T04:26:30.568Z,63.90
2017-11-11T04:28:58.127Z,63.80
2017-11-11T04:31:26.412Z,64.50
2017-11-11T04:33:55.146Z,63.70
2017-11-11T04:36:23.363Z,63.70
2017-11-11T04:38:50.889Z,63.70
2017-11-11T04:41:18.432Z,63.40
2017-11-11T04:43:45.931Z,63.60
2017-11-11T04:46:13.465Z,63.50
2017-11-11T04:48:40.984Z,63.40
2017-11-11T04:51:09.564Z,63.40
2017-11-11T04:53:37.835Z,63.50
2017-11-11T04:56:06.139Z,63.60
2017-11-11T04:58:33.686Z,63.50
2017-11-11T05:01:01.200Z,63.60
2017-11-11T05:03:28.741Z,63.60
2017-11-11T05:05:56.237Z,63.40
2017-11-11T05:08:24.030Z,63.30
2017-11-11T05:10:51.547Z,63.20
2017-11-11T05:13:19.051Z,63.10
2017-11-11T05:15:46.587Z,62.80
2017-11-11T05:18:14.105Z,62.60
2017-11-11T05:20:41.666Z,62.50
2017-11-11T05:23:09.194Z,62.40
2017-11-11T05:25:36.747Z,62.40
2017-11-11T05:28:04.277Z,62.40
2017-11-11T05:30:32.096Z,62.40
2017-11-11T05:32:59.629Z,62.30
2017-11-11T05:35:27.908Z,62.50
2017-11-11T05:37:56.228Z,62.30
2017-11-11T05:40:23.742Z,62.40
2017-11-11T05:42:52.051Z,62.40
2017-11-11T05:45:19.551Z,62.30
2017-11-11T05:47:47.371Z,62.30
2017-11-11T05:50:14.871Z,62.40
2017-11-11T05:52:42.387Z,62.60
2017-11-11T05:55:11.973Z,62.60
2017-11-11T05:57:40.251Z,62.60
2017-11-11T06:00:08.539Z,62.60
2017-11-11T06:02:36.078Z,62.50
2017-11-11T06:05:04.380Z,63.30
2017-11-11T06:07:31.892Z,62.70
2017-11-11T06:09:59.698Z,62.80
2017-11-11T06:12:27.210Z,62.90
2017-11-11T06:14:54.733Z,62.90
2017-11-11T06:17:22.280Z,62.80
2017-11-11T06:19:49.806Z,62.90
2017-11-11T06:22:17.618Z,63.00
2017-11-11T06:24:45.130Z,63.00
2017-11-11T06:27:12.641Z,63.10
2017-11-11T06:29:40.186Z,63.20
2017-11-11T06:32:07.687Z,63.30
2017-11-11T06:34:35.239Z,63.30
2017-11-11T06:37:02.739Z,63.50
2017-11-11T06:39:30.525Z,63.60
2017-11-11T06:41:58.024Z,63.80
2017-11-11T06:44:25.525Z,63.80
2017-11-11T06:46:53.053Z,63.80
2017-11-11T07:01:39.668Z,64.70
2017-11-11T07:09:51.059Z,64.70
2017-11-11T07:12:31.053Z,64.60
2017-11-11T07:14:59.120Z,64.60
2017-11-11T07:18:42.585Z,64.00
2017-11-11T07:21:33.906Z,64.20
2017-11-11T07:26:43.058Z,64.50
2017-11-11T07:29:11.507Z,64.70
2017-11-11T07:31:39.278Z,64.10
2017-11-11T07:34:14.535Z,64.00
2017-11-11T07:36:44.601Z,63.90
2017-11-11T07:39:12.376Z,64.00
2017-11-11T07:41:40.262Z,63.50
2017-11-11T07:44:08.108Z,63.30
2017-11-11T07:46:35.639Z,63.20
2017-11-11T07:49:03.203Z,63.00
2017-11-11T07:51:30.745Z,62.90
2017-11-11T07:53:59.008Z,62.70
2017-11-11T07:56:27.339Z,62.60
2017-11-11T07:58:54.859Z,62.60
2017-11-11T08:01:23.500Z,62.30
2017-11-11T08:03:51.013Z,62.40
2017-11-11T08:06:18.547Z,62.40
2017-11-11T08:08:46.172Z,62.20
2017-11-11T08:11:13.687Z,61.90
2017-11-11T08:13:42.054Z,61.50
2017-11-11T08:16:10.349Z,61.20
2017-11-11T08:18:38.215Z,61.30
2017-11-11T08:21:05.729Z,61.10
2017-11-11T08:23:35.169Z,61.50
2017-11-11T08:26:03.529Z,61.10
2017-11-11T08:28:31.043Z,61.10
2017-11-11T08:30:58.724Z,61.10
2017-11-11T08:33:26.283Z,60.90
2017-11-11T08:35:54.133Z,60.90
2017-11-11T08:38:21.751Z,60.60
2017-11-11T08:40:49.283Z,60.50
2017-11-11T08:43:16.839Z,60.60
2017-11-11T08:45:44.389Z,59.80
2017-11-11T08:48:11.941Z,59.70
2017-11-11T08:50:39.463Z,59.40
2017-11-11T08:53:08.799Z,59.30
2017-11-11T08:55:37.332Z,59.30
2017-11-11T08:58:04.858Z,59.20
2017-11-11T09:00:32.409Z,59.10
2017-11-11T09:02:59.951Z,58.90
2017-11-11T09:05:27.515Z,58.70
2017-11-11T09:07:55.058Z,58.10
2017-11-11T09:10:23.627Z,57.80
2017-11-11T09:12:51.165Z,57.70
2017-11-11T09:15:18.704Z,57.70
2017-11-11T09:17:46.276Z,57.50
2017-11-11T09:20:13.795Z,57.40
2017-11-11T09:22:41.725Z,57.50
2017-11-11T09:25:09.394Z,58.00
2017-11-11T09:27:37.044Z,57.80
2017-11-11T09:30:05.472Z,57.20
2017-11-11T09:32:36.045Z,57.20
2017-11-11T09:35:04.555Z,57.00
2017-11-11T09:37:32.176Z,57.20
2017-11-11T09:40:20.637Z,56.70
2017-11-11T09:45:38.714Z,56.80
2017-11-11T09:48:22.014Z,56.70
2017-11-11T09:50:49.839Z,56.40
2017-11-11T09:53:18.218Z,56.00
2017-11-11T09:55:46.775Z,55.70
2017-11-11T09:58:14.549Z,56.30
2017-11-11T10:00:46.249Z,55.90
2017-11-11T10:03:14.316Z,56.20
2017-11-11T10:08:36.904Z,55.00
2017-11-11T10:11:06.790Z,55.20
2017-11-11T10:16:52.395Z,55.30
2017-11-11T10:19:20.575Z,54.90
2017-11-11T10:21:48.292Z,55.20
2017-11-11T10:30:11.275Z,55.00
2017-11-11T10:32:39.125Z,54.70
2017-11-11T10:35:06.647Z,54.40
2017-11-11T10:37:34.971Z,53.90
2017-11-11T10:40:02.497Z,53.90
2017-11-11T10:42:30.292Z,53.60
2017-11-11T10:44:57.819Z,53.50
2017-11-11T10:47:26.104Z,54.80
2017-11-11T10:53:30.311Z,58.10
2017-11-11T11:47:21.414Z,59.30
2017-11-11T11:49:52.493Z,59.10
2017-11-11T11:52:22.613Z,59.50
2017-11-11T11:54:50.606Z,59.30
2017-11-11T11:57:18.271Z,59.40
2017-11-11T11:59:45.940Z,59.30
2017-11-11T12:02:13.511Z,58.90
2017-11-11T12:07:14.304Z,58.60
2017-11-11T12:09:42.999Z,57.80
2017-11-11T12:12:10.667Z,57.90
2017-11-11T12:14:39.655Z,57.50
2017-11-11T12:17:07.181Z,57.00
2017-11-11T12:19:35.099Z,56.60
2017-11-11T12:22:04.677Z,56.40
2017-11-11T12:24:32.308Z,56.40
2017-11-11T12:26:59.858Z,56.20
2017-11-11T12:29:27.405Z,55.90
2017-11-11T12:31:55.279Z,55.80
2017-11-11T12:34:22.839Z,55.80
2017-11-11T12:36:50.991Z,55.70
2017-11-11T12:39:42.534Z,55.50
2017-11-11T12:42:10.066Z,55.30
2017-11-11T12:44:40.147Z,55.20
2017-11-11T12:47:07.789Z,55.40
2017-11-11T12:49:35.325Z,55.20
2017-11-11T12:52:02.896Z,55.40
2017-11-11T12:54:30.428Z,55.40
2017-11-11T12:56:59.169Z,54.70
2017-11-11T12:59:27.502Z,55.10
2017-11-11T13:01:55.065Z,55.00
2017-11-11T13:04:22.623Z,54.70
2017-11-11T13:06:50.533Z,54.40
2017-11-11T13:09:18.492Z,54.40
2017-11-11T13:11:46.071Z,55.50
2017-11-11T13:14:13.618Z,55.50
2017-11-11T13:16:41.300Z,54.20
2017-11-11T13:19:09.867Z,52.90
2017-11-11T13:21:37.431Z,51.70
2017-11-11T13:24:04.996Z,51.70
2017-11-11T13:26:33.710Z,51.50
2017-11-11T13:29:01.500Z,51.30
2017-11-11T13:31:29.185Z,51.50
2017-11-11T13:33:56.796Z,51.50
2017-11-11T13:36:25.182Z,51.20
2017-11-11T13:38:52.880Z,51.20
2017-11-11T13:41:20.518Z,50.90
2017-11-11T13:43:48.417Z,51.00
2017-11-11T13:46:16.713Z,50.80
2017-11-11T13:48:44.264Z,51.10
2017-11-11T13:51:12.817Z,51.30
2017-11-11T13:53:40.370Z,51.20
2017-11-11T13:56:08.000Z,51.40
2017-11-11T13:58:35.603Z,51.70
2017-11-11T14:01:03.496Z,52.00
2017-11-11T14:03:31.204Z,52.00
2017-11-11T14:05:58.815Z,52.50
2017-11-11T14:08:26.459Z,52.60
2017-11-11T14:10:54.015Z,52.50
2017-11-11T14:13:25.114Z,52.90
2017-11-11T14:15:52.708Z,53.10
2017-11-11T14:21:25.386Z,53.10
2017-11-11T14:23:57.617Z,53.50
2017-11-11T14:26:25.205Z,53.80
2017-11-11T14:28:53.947Z,53.50
2017-11-11T14:31:21.592Z,53.70
2017-11-11T14:33:49.224Z,53.70
2017-11-11T14:40:22.194Z,54.90
2017-11-11T14:42:57.149Z,55.50
2017-11-11T14:45:33.204Z,55.70
2017-11-11T14:53:15.364Z,56.10
2017-11-11T14:55:53.240Z,55.90
2017-11-11T15:01:11.773Z,55.90
2017-11-11T15:06:38.060Z,56.10
2017-11-11T15:09:06.054Z,56.00
2017-11-11T15:11:34.532Z,55.50
2017-11-11T15:14:02.201Z,55.90
2017-11-11T15:16:29.855Z,55.80
2017-11-11T15:18:58.316Z,55.60
2017-11-11T15:21:26.029Z,55.80
2017-11-11T15:23:53.563Z,55.80
2017-11-11T15:26:21.500Z,55.70
2017-11-11T15:28:49.449Z,55.90
2017-11-11T15:31:17.843Z,55.80
2017-11-11T15:33:45.437Z,55.80
2017-11-11T15:36:13.013Z,55.90
2017-11-11T15:38:40.715Z,55.80
2017-11-11T15:41:08.333Z,55.90
2017-11-11T15:43:36.193Z,56.10
2017-11-11T15:46:03.747Z,56.10
2017-11-11T15:48:31.324Z,56.00
2017-11-11T15:50:58.992Z,56.20
2017-11-11T15:53:26.538Z,56.20
2017-11-11T15:56:09.514Z,56.30
2017-11-11T15:58:37.257Z,57.20
2017-11-11T16:01:18.560Z,56.60
2017-11-11T16:03:56.990Z,56.60
2017-11-11T16:06:35.960Z,57.20
2017-11-11T16:09:04.963Z,56.80
2017-11-11T16:11:40.529Z,56.90
2017-11-11T16:14:09.596Z,57.10
2017-11-11T16:16:39.896Z,56.60
2017-11-11T16:19:12.271Z,56.70
2017-11-11T16:21:41.126Z,57.20
2017-11-11T16:24:13.430Z,56.80
2017-11-11T16:26:42.227Z,57.10
2017-11-11T16:29:12.901Z,57.20
2017-11-11T16:31:40.486Z,57.00
2017-11-11T16:34:16.590Z,56.90
2017-11-11T16:36:48.903Z,57.30
2017-11-11T16:39:16.810Z,57.30
2017-11-11T16:41:49.472Z,57.20
2017-11-11T16:47:12.829Z,58.00
2017-11-11T16:49:41.273Z,58.00
2017-11-11T16:52:12.154Z,57.80
2017-11-11T16:54:40.230Z,57.80
2017-11-11T16:57:22.694Z,57.50
2017-11-11T16:59:50.297Z,57.80
2017-11-11T17:02:18.850Z,57.80
2017-11-11T17:04:48.093Z,58.20
2017-11-11T17:07:21.111Z,58.30
2017-11-11T17:09:56.127Z,58.00
2017-11-11T17:12:25.044Z,58.10
2017-11-11T17:15:01.091Z,58.10
2017-11-11T17:17:29.649Z,58.10
2017-11-11T17:20:02.764Z,58.40
2017-11-11T17:22:33.334Z,58.10
2017-11-11T17:25:05.815Z,58.10
2017-11-11T17:27:33.736Z,58.20
2017-11-11T17:30:04.518Z,58.30
2017-11-11T17:32:34.553Z,58.50
2017-11-11T17:35:07.558Z,58.60
2017-11-11T17:37:35.996Z,58.60
2017-11-11T17:40:09.854Z,58.80
2017-11-11T17:42:37.462Z,58.50
2017-11-11T17:45:05.127Z,58.60
2017-11-11T17:50:23.733Z,58.60
2017-11-11T17:53:06.581Z,58.70
2017-11-11T17:55:40.104Z,58.70
2017-11-11T17:58:08.538Z,59.20
2017-11-11T18:03:33.242Z,59.10
2017-11-11T18:08:44.495Z,59.10
2017-11-11T18:11:13.860Z,59.30
2017-11-11T18:16:19.253Z,59.00
2017-11-11T18:18:58.336Z,59.40
2017-11-11T18:21:45.578Z,59.40
2017-11-11T18:24:20.873Z,59.00
2017-11-11T18:26:51.628Z,59.30
2017-11-11T18:29:29.416Z,59.20
2017-11-11T18:31:58.621Z,59.50
2017-11-11T18:34:28.126Z,59.40
2017-11-11T18:37:02.956Z,59.30
2017-11-11T18:39:30.645Z,59.50
2017-11-11T18:44:52.636Z,59.60
2017-11-11T18:47:22.102Z,59.80
2017-11-11T18:49:55.033Z,60.00
2017-11-11T18:52:24.938Z,59.90
2017-11-11T18:54:53.457Z,60.50
2017-11-11T19:00:24.720Z,60.00
2017-11-11T19:02:53.304Z,60.50
2017-11-11T19:05:23.705Z,60.50
2017-11-11T19:07:52.147Z,60.00
2017-11-11T19:10:21.759Z,60.00
2017-11-11T19:12:49.299Z,60.00
2017-11-11T19:15:17.130Z,59.80
2017-11-11T19:17:46.923Z,60.10
2017-11-11T19:20:14.529Z,60.00
2017-11-11T19:22:48.960Z,60.40
2017-11-11T19:25:21.461Z,60.10
2017-11-11T19:27:49.182Z,60.30
2017-11-11T19:30:17.693Z,60.50
2017-11-11T19:32:47.319Z,60.40
2017-11-11T19:35:18.115Z,60.10
2017-11-11T19:37:45.709Z,60.40
2017-11-11T19:40:14.679Z,60.40
2017-11-11T19:42:44.133Z,60.30
2017-11-11T19:45:11.761Z,60.30
2017-11-11T19:47:44.808Z,60.70
2017-11-11T19:50:16.903Z,60.50
2017-11-11T19:52:45.379Z,61.20
2017-11-11T19:55:13.795Z,60.50
2017-11-11T19:57:42.285Z,60.60
2017-11-11T20:00:11.569Z,60.70
2017-11-11T20:02:51.661Z,60.60
2017-11-11T20:05:20.501Z,60.80
2017-11-11T20:07:49.400Z,60.50
2017-11-11T20:10:20.827Z,60.90
2017-11-11T20:12:50.135Z,60.50
2017-11-11T20:15:19.468Z,60.70
2017-11-11T20:17:57.985Z,61.30
2017-11-11T20:20:26.422Z,60.80
2017-11-11T20:22:54.519Z,61.00
2017-11-11T20:25:22.449Z,60.90
2017-11-11T20:27:54.652Z,60.80
2017-11-11T20:30:22.465Z,60.90
2017-11-11T20:32:50.685Z,61.90
2017-11-11T20:38:03.740Z,61.00
2017-11-11T20:40:33.066Z,60.80
2017-11-11T20:43:01.387Z,60.90
2017-11-11T20:45:29.675Z,61.00
2017-11-11T20:47:59.721Z,61.00
2017-11-11T20:50:32.481Z,61.10
2017-11-11T20:53:01.217Z,61.40
2017-11-11T20:55:37.708Z,61.50
2017-11-11T20:58:05.629Z,61.80
2017-11-11T21:00:33.642Z,62.20
2017-11-11T21:03:03.583Z,61.80
2017-11-11T21:05:34.681Z,62.90
2017-11-11T21:08:03.201Z,62.30
2017-11-11T21:10:30.820Z,62.30
2017-11-11T21:12:59.024Z,62.40
2017-11-11T21:15:35.746Z,62.20
2017-11-11T21:18:04.892Z,63.00
2017-11-11T21:23:10.413Z,62.50
2017-11-11T21:25:47.333Z,62.80
2017-11-11T21:28:25.256Z,63.20
2017-11-11T21:30:58.982Z,63.10
2017-11-11T21:33:35.088Z,63.40
2017-11-11T21:36:06.970Z,63.10
2017-11-11T21:38:35.058Z,63.30
2017-11-11T21:41:02.621Z,63.10
2017-11-11T21:43:36.024Z,63.00
2017-11-11T21:46:03.626Z,63.50
2017-11-11T21:48:35.208Z,63.30
2017-11-11T21:51:03.001Z,63.10
2017-11-11T21:53:31.354Z,63.40
2017-11-11T21:55:59.066Z,63.40
2017-11-11T21:58:26.648Z,63.10
2017-11-11T22:00:54.205Z,63.10
2017-11-11T22:03:23.224Z,63.00
2017-11-11T22:05:52.806Z,63.20
2017-11-11T22:08:22.414Z,63.40
2017-11-11T22:10:50.839Z,63.70
2017-11-11T22:13:20.624Z,63.20
2017-11-11T22:15:51.983Z,63.50
2017-11-11T22:18:22.441Z,63.40
2017-11-11T22:20:55.027Z,63.30
2017-11-11T22:25:57.782Z,63.50
2017-11-11T22:28:28.401Z,65.00
2017-11-11T22:31:02.766Z,63.20
2017-11-11T22:33:31.838Z,63.20
2017-11-11T22:38:55.109Z,63.40
2017-11-11T22:41:29.110Z,62.90
2017-11-11T22:43:57.533Z,63.20
2017-11-11T22:46:27.915Z,63.30
2017-11-11T22:48:58.036Z,63.10
2017-11-11T22:51:27.911Z,63.20
2017-11-11T22:53:55.570Z,63.30
2017-11-11T22:56:26.158Z,63.90
2017-11-11T22:58:54.047Z,63.40
2017-11-11T23:01:26.585Z,63.40
2017-11-11T23:04:01.216Z,63.00
2017-11-11T23:06:28.779Z,63.20
2017-11-11T23:08:56.635Z,63.20
2017-11-11T23:11:24.160Z,62.90
2017-11-11T23:13:51.674Z,62.80
2017-11-11T23:16:19.345Z,62.80
2017-11-11T23:18:47.084Z,62.80
2017-11-11T23:21:14.676Z,62.80
2017-11-11T23:23:42.207Z,62.80
2017-11-11T23:26:10.283Z,62.80
2017-11-11T23:28:37.826Z,62.70
2017-11-11T23:31:05.354Z,62.70
2017-11-11T23:33:33.683Z,62.60
2017-11-11T23:36:01.427Z,62.60
2017-11-11T23:38:29.049Z,62.70
2017-11-11T23:40:57.338Z,62.70
2017-11-11T23:43:25.906Z,62.50
2017-11-11T23:45:53.568Z,62.60
2017-11-11T23:48:21.149Z,62.50
2017-11-11T23:50:49.640Z,63.10
2017-11-11T23:53:17.168Z,62.60
2017-11-11T23:55:44.698Z,62.70
2017-11-11T23:58:12.750Z,62.90
